sensor_id;sensor_type;location;lat;lon;timestamp;P1;durP1;ratioP1;P2;durP2;ratioP2
24337;SDS011;12457;50.832;4.346;2022-12-10T00:00:21;73.57;;;35.22;;
24337;SDS011;12457;50.832;4.346;2022-12-10T00:02:47;70.75;;;33.80;;
24337;SDS011;12457;50.832;4.346;2022-12-10T00:05:13;75.95;;;34.58;;
24337;SDS011;12457;50.832;4.346;2022-12-10T00:07:41;80.32;;;36.42;;
24337;SDS011;12457;50.832;4.346;2022-12-10T00:10:12;71.93;;;33.63;;
24337;SDS011;12457;50.832;4.346;2022-12-10T00:12:38;68.50;;;32.95;;
24337;SDS011;12457;50.832;4.346;2022-12-10T00:15:06;73.78;;;34.45;;
24337;SDS011;12457;50.832;4.346;2022-12-10T00:17:32;71.47;;;34.00;;
24337;SDS011;12457;50.832;4.346;2022-12-10T00:20:01;67.35;;;33.28;;
24337;SDS011;12457;50.832;4.346;2022-12-10T00:22:27;71.35;;;32.42;;
24337;SDS011;12457;50.832;4.346;2022-12-10T00:24:56;72.60;;;32.92;;
24337;SDS011;12457;50.832;4.346;2022-12-10T00:27:21;71.00;;;32.33;;
24337;SDS011;12457;50.832;4.346;2022-12-10T00:29:47;72.07;;;32.85;;
24337;SDS011;12457;50.832;4.346;2022-12-10T00:32:12;74.47;;;33.97;;
24337;SDS011;12457;50.832;4.346;2022-12-10T00:34:38;77.05;;;35.67;;
24337;SDS011;12457;50.832;4.346;2022-12-10T00:37:04;72.03;;;33.15;;
24337;SDS011;12457;50.832;4.346;2022-12-10T00:39:29;70.20;;;34.40;;
24337;SDS011;12457;50.832;4.346;2022-12-10T00:41:55;68.80;;;33.05;;
24337;SDS011;12457;50.832;4.346;2022-12-10T00:44:21;71.05;;;34.55;;
24337;SDS011;12457;50.832;4.346;2022-12-10T00:46:47;73.28;;;35.28;;
24337;SDS011;12457;50.832;4.346;2022-12-10T00:49:13;81.53;;;35.22;;
24337;SDS011;12457;50.832;4.346;2022-12-10T00:51:39;65.57;;;33.38;;
24337;SDS011;12457;50.832;4.346;2022-12-10T00:54:05;70.00;;;33.70;;
24337;SDS011;12457;50.832;4.346;2022-12-10T00:56:31;72.63;;;34.28;;
24337;SDS011;12457;50.832;4.346;2022-12-10T00:58:58;65.32;;;33.85;;
24337;SDS011;12457;50.832;4.346;2022-12-10T01:01:28;71.18;;;32.80;;
24337;SDS011;12457;50.832;4.346;2022-12-10T01:06:30;68.28;;;32.15;;
24337;SDS011;12457;50.832;4.346;2022-12-10T01:11:30;70.00;;;33.30;;
24337;SDS011;12457;50.832;4.346;2022-12-10T01:13:58;68.28;;;35.55;;
24337;SDS011;12457;50.832;4.346;2022-12-10T01:16:25;76.70;;;36.78;;
24337;SDS011;12457;50.832;4.346;2022-12-10T01:18:55;71.93;;;35.70;;
24337;SDS011;12457;50.832;4.346;2022-12-10T01:21:21;79.35;;;37.95;;
24337;SDS011;12457;50.832;4.346;2022-12-10T01:23:49;79.93;;;37.17;;
24337;SDS011;12457;50.832;4.346;2022-12-10T01:26:20;77.45;;;38.53;;
24337;SDS011;12457;50.832;4.346;2022-12-10T01:28:47;79.90;;;37.83;;
24337;SDS011;12457;50.832;4.346;2022-12-10T01:31:15;83.07;;;39.67;;
24337;SDS011;12457;50.832;4.346;2022-12-10T01:33:58;83.43;;;38.15;;
24337;SDS011;12457;50.832;4.346;2022-12-10T01:36:28;76.70;;;39.83;;
24337;SDS011;12457;50.832;4.346;2022-12-10T01:38:55;78.72;;;37.05;;
24337;SDS011;12457;50.832;4.346;2022-12-10T01:41:23;82.03;;;39.47;;
24337;SDS011;12457;50.832;4.346;2022-12-10T01:46:33;77.25;;;38.13;;
24337;SDS011;12457;50.832;4.346;2022-12-10T01:49:14;83.10;;;40.00;;
24337;SDS011;12457;50.832;4.346;2022-12-10T01:51:48;70.22;;;36.35;;
24337;SDS011;12457;50.832;4.346;2022-12-10T01:54:17;83.10;;;39.42;;
24337;SDS011;12457;50.832;4.346;2022-12-10T01:56:45;81.57;;;38.28;;
24337;SDS011;12457;50.832;4.346;2022-12-10T01:59:18;83.45;;;41.05;;
24337;SDS011;12457;50.832;4.346;2022-12-10T02:15:51;74.97;;;40.80;;
24337;SDS011;12457;50.832;4.346;2022-12-10T02:18:56;80.82;;;41.50;;
24337;SDS011;12457;50.832;4.346;2022-12-10T02:21:27;86.43;;;40.90;;
24337;SDS011;12457;50.832;4.346;2022-12-10T02:23:59;83.63;;;39.03;;
24337;SDS011;12457;50.832;4.346;2022-12-10T02:26:40;86.22;;;40.75;;
24337;SDS011;12457;50.832;4.346;2022-12-10T02:29:18;84.68;;;40.50;;
24337;SDS011;12457;50.832;4.346;2022-12-10T02:31:52;89.28;;;42.33;;
24337;SDS011;12457;50.832;4.346;2022-12-10T02:34:30;77.90;;;39.58;;
24337;SDS011;12457;50.832;4.346;2022-12-10T02:37:04;85.45;;;42.55;;
24337;SDS011;12457;50.832;4.346;2022-12-10T02:39:35;86.32;;;41.10;;
24337;SDS011;12457;50.832;4.346;2022-12-10T02:42:03;86.30;;;42.10;;
24337;SDS011;12457;50.832;4.346;2022-12-10T02:44:31;87.50;;;42.85;;
24337;SDS011;12457;50.832;4.346;2022-12-10T02:47:01;99.72;;;46.83;;
24337;SDS011;12457;50.832;4.346;2022-12-10T02:49:27;87.78;;;43.88;;
24337;SDS011;12457;50.832;4.346;2022-12-10T02:51:54;108.35;;;47.63;;
24337;SDS011;12457;50.832;4.346;2022-12-10T02:54:34;108.78;;;49.90;;
24337;SDS011;12457;50.832;4.346;2022-12-10T02:59:51;94.72;;;46.55;;
24337;SDS011;12457;50.832;4.346;2022-12-10T03:05:13;104.78;;;48.72;;
24337;SDS011;12457;50.832;4.346;2022-12-10T03:07:49;105.13;;;47.60;;
24337;SDS011;12457;50.832;4.346;2022-12-10T03:10:28;108.47;;;47.75;;
24337;SDS011;12457;50.832;4.346;2022-12-10T03:13:00;106.70;;;46.75;;
24337;SDS011;12457;50.832;4.346;2022-12-10T03:15:31;114.38;;;48.35;;
24337;SDS011;12457;50.832;4.346;2022-12-10T03:18:00;110.32;;;47.78;;
24337;SDS011;12457;50.832;4.346;2022-12-10T03:20:28;108.68;;;46.38;;
24337;SDS011;12457;50.832;4.346;2022-12-10T03:22:57;118.63;;;47.00;;
24337;SDS011;12457;50.832;4.346;2022-12-10T03:25:23;115.40;;;46.28;;
24337;SDS011;12457;50.832;4.346;2022-12-10T03:27:51;117.38;;;47.63;;
24337;SDS011;12457;50.832;4.346;2022-12-10T03:30:20;117.07;;;48.50;;
24337;SDS011;12457;50.832;4.346;2022-12-10T03:32:46;117.70;;;47.33;;
24337;SDS011;12457;50.832;4.346;2022-12-10T03:35:12;113.05;;;49.88;;
24337;SDS011;12457;50.832;4.346;2022-12-10T03:37:39;122.93;;;49.22;;
24337;SDS011;12457;50.832;4.346;2022-12-10T03:40:05;118.30;;;48.78;;
24337;SDS011;12457;50.832;4.346;2022-12-10T03:42:35;122.88;;;48.15;;
24337;SDS011;12457;50.832;4.346;2022-12-10T03:45:01;122.95;;;50.35;;
24337;SDS011;12457;50.832;4.346;2022-12-10T03:47:27;141.68;;;51.88;;
24337;SDS011;12457;50.832;4.346;2022-12-10T03:49:53;127.50;;;49.75;;
24337;SDS011;12457;50.832;4.346;2022-12-10T03:52:18;120.43;;;48.42;;
24337;SDS011;12457;50.832;4.346;2022-12-10T03:54:44;129.88;;;49.22;;
24337;SDS011;12457;50.832;4.346;2022-12-10T03:57:10;119.00;;;48.00;;
24337;SDS011;12457;50.832;4.346;2022-12-10T03:59:35;122.43;;;49.72;;
24337;SDS011;12457;50.832;4.346;2022-12-10T04:02:01;127.88;;;49.97;;
24337;SDS011;12457;50.832;4.346;2022-12-10T04:04:27;115.03;;;47.45;;
24337;SDS011;12457;50.832;4.346;2022-12-10T04:06:52;113.85;;;45.72;;
24337;SDS011;12457;50.832;4.346;2022-12-10T04:09:18;114.30;;;45.03;;
24337;SDS011;12457;50.832;4.346;2022-12-10T04:11:44;108.80;;;44.35;;
24337;SDS011;12457;50.832;4.346;2022-12-10T04:14:10;109.72;;;48.17;;
24337;SDS011;12457;50.832;4.346;2022-12-10T04:16:56;116.90;;;45.25;;
24337;SDS011;12457;50.832;4.346;2022-12-10T04:19:21;109.25;;;45.10;;
24337;SDS011;12457;50.832;4.346;2022-12-10T04:21:48;119.15;;;45.42;;
24337;SDS011;12457;50.832;4.346;2022-12-10T04:24:33;113.60;;;43.90;;
24337;SDS011;12457;50.832;4.346;2022-12-10T04:27:26;107.00;;;43.75;;
24337;SDS011;12457;50.832;4.346;2022-12-10T04:29:54;101.38;;;41.53;;
24337;SDS011;12457;50.832;4.346;2022-12-10T04:32:20;110.53;;;41.15;;
24337;SDS011;12457;50.832;4.346;2022-12-10T04:34:47;105.55;;;44.15;;
24337;SDS011;12457;50.832;4.346;2022-12-10T04:37:13;119.70;;;44.03;;
24337;SDS011;12457;50.832;4.346;2022-12-10T04:39:39;132.02;;;43.38;;
24337;SDS011;12457;50.832;4.346;2022-12-10T04:42:05;109.13;;;44.13;;
24337;SDS011;12457;50.832;4.346;2022-12-10T04:44:31;110.55;;;43.55;;
24337;SDS011;12457;50.832;4.346;2022-12-10T04:46:57;117.22;;;46.28;;
24337;SDS011;12457;50.832;4.346;2022-12-10T04:49:23;120.47;;;45.92;;
24337;SDS011;12457;50.832;4.346;2022-12-10T04:51:49;111.32;;;44.95;;
24337;SDS011;12457;50.832;4.346;2022-12-10T04:54:16;117.93;;;45.25;;
24337;SDS011;12457;50.832;4.346;2022-12-10T04:56:42;112.88;;;44.28;;
24337;SDS011;12457;50.832;4.346;2022-12-10T04:59:08;113.93;;;44.53;;
24337;SDS011;12457;50.832;4.346;2022-12-10T05:01:35;115.38;;;45.47;;
24337;SDS011;12457;50.832;4.346;2022-12-10T05:04:01;128.18;;;47.85;;
24337;SDS011;12457;50.832;4.346;2022-12-10T05:06:28;129.63;;;46.80;;
24337;SDS011;12457;50.832;4.346;2022-12-10T05:08:54;118.97;;;46.13;;
24337;SDS011;12457;50.832;4.346;2022-12-10T05:11:21;135.48;;;46.05;;
24337;SDS011;12457;50.832;4.346;2022-12-10T05:13:49;113.57;;;45.28;;
24337;SDS011;12457;50.832;4.346;2022-12-10T05:16:16;126.75;;;44.50;;
24337;SDS011;12457;50.832;4.346;2022-12-10T05:18:43;117.57;;;44.38;;
24337;SDS011;12457;50.832;4.346;2022-12-10T05:21:11;109.00;;;42.92;;
24337;SDS011;12457;50.832;4.346;2022-12-10T05:23:39;117.20;;;41.58;;
24337;SDS011;12457;50.832;4.346;2022-12-10T05:26:08;123.80;;;42.03;;
24337;SDS011;12457;50.832;4.346;2022-12-10T05:28:36;109.53;;;40.88;;
24337;SDS011;12457;50.832;4.346;2022-12-10T05:31:04;100.03;;;38.97;;
24337;SDS011;12457;50.832;4.346;2022-12-10T05:33:30;105.50;;;39.72;;
24337;SDS011;12457;50.832;4.346;2022-12-10T05:35:58;101.32;;;38.63;;
24337;SDS011;12457;50.832;4.346;2022-12-10T05:38:26;120.88;;;41.03;;
24337;SDS011;12457;50.832;4.346;2022-12-10T05:40:53;103.50;;;40.17;;
24337;SDS011;12457;50.832;4.346;2022-12-10T05:43:18;101.90;;;41.22;;
24337;SDS011;12457;50.832;4.346;2022-12-10T05:45:44;109.68;;;39.50;;
24337;SDS011;12457;50.832;4.346;2022-12-10T05:48:11;110.13;;;39.05;;
24337;SDS011;12457;50.832;4.346;2022-12-10T05:50:39;102.18;;;42.45;;
24337;SDS011;12457;50.832;4.346;2022-12-10T05:53:05;132.32;;;42.00;;
24337;SDS011;12457;50.832;4.346;2022-12-10T05:55:31;113.95;;;41.80;;
24337;SDS011;12457;50.832;4.346;2022-12-10T05:57:58;115.15;;;41.47;;
24337;SDS011;12457;50.832;4.346;2022-12-10T06:00:24;102.72;;;41.78;;
24337;SDS011;12457;50.832;4.346;2022-12-10T06:02:50;117.25;;;41.92;;
24337;SDS011;12457;50.832;4.346;2022-12-10T06:05:16;105.82;;;41.92;;
24337;SDS011;12457;50.832;4.346;2022-12-10T06:07:42;114.18;;;41.25;;
24337;SDS011;12457;50.832;4.346;2022-12-10T06:10:08;117.90;;;40.80;;
24337;SDS011;12457;50.832;4.346;2022-12-10T06:12:33;96.80;;;39.22;;
24337;SDS011;12457;50.832;4.346;2022-12-10T06:14:59;111.60;;;39.42;;
24337;SDS011;12457;50.832;4.346;2022-12-10T06:17:25;105.53;;;39.30;;
24337;SDS011;12457;50.832;4.346;2022-12-10T06:19:51;109.40;;;40.72;;
24337;SDS011;12457;50.832;4.346;2022-12-10T06:22:16;114.22;;;42.05;;
24337;SDS011;12457;50.832;4.346;2022-12-10T06:24:42;101.30;;;40.28;;
24337;SDS011;12457;50.832;4.346;2022-12-10T06:27:08;120.35;;;41.50;;
24337;SDS011;12457;50.832;4.346;2022-12-10T06:29:33;107.20;;;39.47;;
24337;SDS011;12457;50.832;4.346;2022-12-10T06:31:59;126.63;;;39.95;;
24337;SDS011;12457;50.832;4.346;2022-12-10T06:34:25;97.72;;;38.88;;
24337;SDS011;12457;50.832;4.346;2022-12-10T06:36:51;106.45;;;38.88;;
24337;SDS011;12457;50.832;4.346;2022-12-10T06:39:18;104.57;;;38.58;;
24337;SDS011;12457;50.832;4.346;2022-12-10T06:41:43;100.88;;;35.92;;
24337;SDS011;12457;50.832;4.346;2022-12-10T06:44:10;104.95;;;37.60;;
24337;SDS011;12457;50.832;4.346;2022-12-10T06:46:37;103.50;;;38.75;;
24337;SDS011;12457;50.832;4.346;2022-12-10T06:49:04;111.88;;;41.50;;
24337;SDS011;12457;50.832;4.346;2022-12-10T06:51:30;113.93;;;40.17;;
24337;SDS011;12457;50.832;4.346;2022-12-10T06:53:56;103.80;;;41.20;;
24337;SDS011;12457;50.832;4.346;2022-12-10T06:56:22;116.22;;;42.65;;
24337;SDS011;12457;50.832;4.346;2022-12-10T06:58:47;102.43;;;42.25;;
24337;SDS011;12457;50.832;4.346;2022-12-10T07:01:14;107.07;;;41.15;;
24337;SDS011;12457;50.832;4.346;2022-12-10T07:03:49;105.88;;;41.78;;
24337;SDS011;12457;50.832;4.346;2022-12-10T07:06:16;135.23;;;40.83;;
24337;SDS011;12457;50.832;4.346;2022-12-10T07:08:42;106.13;;;41.15;;
24337;SDS011;12457;50.832;4.346;2022-12-10T07:11:12;97.47;;;38.53;;
24337;SDS011;12457;50.832;4.346;2022-12-10T07:13:39;112.10;;;39.70;;
24337;SDS011;12457;50.832;4.346;2022-12-10T07:16:12;127.45;;;39.20;;
24337;SDS011;12457;50.832;4.346;2022-12-10T07:18:39;115.45;;;40.10;;
24337;SDS011;12457;50.832;4.346;2022-12-10T07:21:18;149.05;;;37.08;;
24337;SDS011;12457;50.832;4.346;2022-12-10T07:23:49;129.77;;;38.58;;
24337;SDS011;12457;50.832;4.346;2022-12-10T07:26:15;127.20;;;36.47;;
24337;SDS011;12457;50.832;4.346;2022-12-10T07:28:41;142.85;;;39.83;;
24337;SDS011;12457;50.832;4.346;2022-12-10T07:31:08;115.45;;;40.15;;
24337;SDS011;12457;50.832;4.346;2022-12-10T07:33:34;102.28;;;38.38;;
24337;SDS011;12457;50.832;4.346;2022-12-10T07:36:07;109.38;;;38.78;;
24337;SDS011;12457;50.832;4.346;2022-12-10T07:38:34;113.60;;;39.25;;
24337;SDS011;12457;50.832;4.346;2022-12-10T07:41:04;134.35;;;38.13;;
24337;SDS011;12457;50.832;4.346;2022-12-10T07:43:33;125.03;;;39.85;;
24337;SDS011;12457;50.832;4.346;2022-12-10T07:46:06;126.68;;;37.85;;
24337;SDS011;12457;50.832;4.346;2022-12-10T07:48:37;108.72;;;33.15;;
24337;SDS011;12457;50.832;4.346;2022-12-10T07:51:05;107.65;;;37.75;;
24337;SDS011;12457;50.832;4.346;2022-12-10T07:53:31;119.20;;;38.08;;
24337;SDS011;12457;50.832;4.346;2022-12-10T07:56:06;110.95;;;38.00;;
24337;SDS011;12457;50.832;4.346;2022-12-10T07:59:24;142.35;;;39.42;;
24337;SDS011;12457;50.832;4.346;2022-12-10T08:02:08;110.88;;;37.97;;
24337;SDS011;12457;50.832;4.346;2022-12-10T08:04:34;108.28;;;36.28;;
24337;SDS011;12457;50.832;4.346;2022-12-10T08:07:00;107.25;;;40.13;;
24337;SDS011;12457;50.832;4.346;2022-12-10T08:09:28;106.20;;;37.95;;
24337;SDS011;12457;50.832;4.346;2022-12-10T08:11:54;105.22;;;36.85;;
24337;SDS011;12457;50.832;4.346;2022-12-10T08:14:20;119.90;;;36.38;;
24337;SDS011;12457;50.832;4.346;2022-12-10T08:16:46;101.57;;;36.28;;
24337;SDS011;12457;50.832;4.346;2022-12-10T08:19:12;102.68;;;35.63;;
24337;SDS011;12457;50.832;4.346;2022-12-10T08:21:38;138.02;;;35.45;;
24337;SDS011;12457;50.832;4.346;2022-12-10T08:24:03;120.65;;;36.58;;
24337;SDS011;12457;50.832;4.346;2022-12-10T08:26:30;105.72;;;36.53;;
24337;SDS011;12457;50.832;4.346;2022-12-10T08:28:57;106.80;;;34.75;;
24337;SDS011;12457;50.832;4.346;2022-12-10T08:31:24;101.75;;;35.47;;
24337;SDS011;12457;50.832;4.346;2022-12-10T08:33:51;96.32;;;34.92;;
24337;SDS011;12457;50.832;4.346;2022-12-10T08:36:17;94.18;;;33.83;;
24337;SDS011;12457;50.832;4.346;2022-12-10T08:38:44;110.85;;;33.85;;
24337;SDS011;12457;50.832;4.346;2022-12-10T08:41:22;86.25;;;33.83;;
24337;SDS011;12457;50.832;4.346;2022-12-10T08:43:48;92.93;;;32.72;;
24337;SDS011;12457;50.832;4.346;2022-12-10T08:46:17;101.28;;;33.72;;
24337;SDS011;12457;50.832;4.346;2022-12-10T08:48:42;85.32;;;31.65;;
24337;SDS011;12457;50.832;4.346;2022-12-10T08:51:11;97.55;;;36.08;;
24337;SDS011;12457;50.832;4.346;2022-12-10T08:53:39;92.72;;;34.55;;
24337;SDS011;12457;50.832;4.346;2022-12-10T08:56:05;111.30;;;37.00;;
24337;SDS011;12457;50.832;4.346;2022-12-10T08:58:35;107.95;;;39.30;;
24337;SDS011;12457;50.832;4.346;2022-12-10T09:01:05;104.82;;;36.47;;
24337;SDS011;12457;50.832;4.346;2022-12-10T09:03:38;102.28;;;36.95;;
24337;SDS011;12457;50.832;4.346;2022-12-10T09:06:05;93.93;;;34.78;;
24337;SDS011;12457;50.832;4.346;2022-12-10T09:08:33;95.13;;;35.25;;
24337;SDS011;12457;50.832;4.346;2022-12-10T09:11:03;97.57;;;37.38;;
24337;SDS011;12457;50.832;4.346;2022-12-10T09:13:39;101.10;;;36.67;;
24337;SDS011;12457;50.832;4.346;2022-12-10T09:16:06;102.93;;;39.75;;
24337;SDS011;12457;50.832;4.346;2022-12-10T09:18:32;106.18;;;37.80;;
24337;SDS011;12457;50.832;4.346;2022-12-10T09:21:04;108.78;;;39.00;;
24337;SDS011;12457;50.832;4.346;2022-12-10T09:23:35;101.30;;;38.25;;
24337;SDS011;12457;50.832;4.346;2022-12-10T09:26:01;121.00;;;40.72;;
24337;SDS011;12457;50.832;4.346;2022-12-10T09:28:30;116.53;;;44.47;;
24337;SDS011;12457;50.832;4.346;2022-12-10T09:30:59;120.35;;;40.55;;
24337;SDS011;12457;50.832;4.346;2022-12-10T09:33:26;110.18;;;39.92;;
24337;SDS011;12457;50.832;4.346;2022-12-10T09:35:52;119.82;;;43.85;;
24337;SDS011;12457;50.832;4.346;2022-12-10T09:38:18;101.93;;;40.45;;
24337;SDS011;12457;50.832;4.346;2022-12-10T09:51:48;117.93;;;51.53;;
24337;SDS011;12457;50.832;4.346;2022-12-10T09:54:21;119.13;;;50.92;;
24337;SDS011;12457;50.832;4.346;2022-12-10T09:56:54;113.35;;;41.08;;
24337;SDS011;12457;50.832;4.346;2022-12-10T09:59:28;117.20;;;45.33;;
24337;SDS011;12457;50.832;4.346;2022-12-10T10:04:51;106.45;;;38.35;;
24337;SDS011;12457;50.832;4.346;2022-12-10T10:07:20;97.35;;;38.55;;
24337;SDS011;12457;50.832;4.346;2022-12-10T10:10:01;112.43;;;39.72;;
24337;SDS011;12457;50.832;4.346;2022-12-10T10:12:31;116.10;;;46.88;;
24337;SDS011;12457;50.832;4.346;2022-12-10T10:14:58;132.57;;;52.30;;
24337;SDS011;12457;50.832;4.346;2022-12-10T10:17:35;107.60;;;40.58;;
24337;SDS011;12457;50.832;4.346;2022-12-10T10:20:02;109.00;;;40.15;;
24337;SDS011;12457;50.832;4.346;2022-12-10T10:22:28;105.65;;;39.88;;
24337;SDS011;12457;50.832;4.346;2022-12-10T10:24:55;103.80;;;39.58;;
24337;SDS011;12457;50.832;4.346;2022-12-10T10:27:25;104.70;;;39.63;;
24337;SDS011;12457;50.832;4.346;2022-12-10T10:29:54;110.68;;;46.25;;
24337;SDS011;12457;50.832;4.346;2022-12-10T10:32:26;101.40;;;41.22;;
24337;SDS011;12457;50.832;4.346;2022-12-10T10:35:19;108.05;;;46.80;;
24337;SDS011;12457;50.832;4.346;2022-12-10T10:38:05;106.72;;;49.60;;
24337;SDS011;12457;50.832;4.346;2022-12-10T10:43:05;110.60;;;46.33;;
24337;SDS011;12457;50.832;4.346;2022-12-10T10:50:45;129.20;;;55.45;;
24337;SDS011;12457;50.832;4.346;2022-12-10T10:55:55;90.97;;;38.10;;
24337;SDS011;12457;50.832;4.346;2022-12-10T10:58:24;101.85;;;39.28;;
24337;SDS011;12457;50.832;4.346;2022-12-10T11:01:02;110.90;;;44.92;;
24337;SDS011;12457;50.832;4.346;2022-12-10T11:03:30;98.18;;;37.10;;
24337;SDS011;12457;50.832;4.346;2022-12-10T11:05:58;97.45;;;36.47;;
24337;SDS011;12457;50.832;4.346;2022-12-10T11:08:26;92.40;;;34.50;;
24337;SDS011;12457;50.832;4.346;2022-12-10T11:10:56;91.18;;;35.30;;
24337;SDS011;12457;50.832;4.346;2022-12-10T11:13:28;98.80;;;35.72;;
24337;SDS011;12457;50.832;4.346;2022-12-10T11:18:53;100.43;;;39.85;;
24337;SDS011;12457;50.832;4.346;2022-12-10T11:21:26;111.10;;;39.70;;
24337;SDS011;12457;50.832;4.346;2022-12-10T11:23:54;101.85;;;43.95;;
24337;SDS011;12457;50.832;4.346;2022-12-10T11:40:40;125.78;;;54.63;;
24337;SDS011;12457;50.832;4.346;2022-12-10T11:48:27;90.85;;;37.20;;
24337;SDS011;12457;50.832;4.346;2022-12-10T11:54:03;82.22;;;32.53;;
24337;SDS011;12457;50.832;4.346;2022-12-10T11:56:52;94.75;;;35.33;;
24337;SDS011;12457;50.832;4.346;2022-12-10T11:59:41;135.00;;;52.15;;
24337;SDS011;12457;50.832;4.346;2022-12-10T12:02:33;99.28;;;38.17;;
24337;SDS011;12457;50.832;4.346;2022-12-10T12:11:22;99.80;;;39.58;;
24337;SDS011;12457;50.832;4.346;2022-12-10T12:14:07;90.50;;;31.67;;
24337;SDS011;12457;50.832;4.346;2022-12-10T12:16:50;88.03;;;33.10;;
24337;SDS011;12457;50.832;4.346;2022-12-10T12:19:48;77.45;;;31.70;;
24337;SDS011;12457;50.832;4.346;2022-12-10T12:22:23;109.35;;;42.70;;
24337;SDS011;12457;50.832;4.346;2022-12-10T12:24:56;81.97;;;33.78;;
24337;SDS011;12457;50.832;4.346;2022-12-10T12:27:41;75.50;;;31.80;;
24337;SDS011;12457;50.832;4.346;2022-12-10T12:35:52;96.63;;;42.08;;
24337;SDS011;12457;50.832;4.346;2022-12-10T12:41:05;72.43;;;28.17;;
24337;SDS011;12457;50.832;4.346;2022-12-10T12:46:08;76.78;;;29.33;;
24337;SDS011;12457;50.832;4.346;2022-12-10T12:51:41;77.80;;;33.15;;
24337;SDS011;12457;50.832;4.346;2022-12-10T12:54:13;73.07;;;29.60;;
24337;SDS011;12457;50.832;4.346;2022-12-10T13:05:32;67.70;;;27.77;;
24337;SDS011;12457;50.832;4.346;2022-12-10T13:10:56;86.38;;;34.50;;
24337;SDS011;12457;50.832;4.346;2022-12-10T13:13:28;68.68;;;28.60;;
24337;SDS011;12457;50.832;4.346;2022-12-10T13:15:54;70.65;;;27.58;;
24337;SDS011;12457;50.832;4.346;2022-12-10T13:18:22;68.18;;;28.90;;
24337;SDS011;12457;50.832;4.346;2022-12-10T13:21:30;67.30;;;28.58;;
24337;SDS011;12457;50.832;4.346;2022-12-10T13:24:10;68.43;;;26.38;;
24337;SDS011;12457;50.832;4.346;2022-12-10T13:26:58;63.30;;;27.15;;
24337;SDS011;12457;50.832;4.346;2022-12-10T13:29:44;77.97;;;29.15;;
24337;SDS011;12457;50.832;4.346;2022-12-10T13:32:22;71.57;;;28.67;;
24337;SDS011;12457;50.832;4.346;2022-12-10T13:46:25;65.38;;;27.00;;
24337;SDS011;12457;50.832;4.346;2022-12-10T13:48:52;66.97;;;28.48;;
24337;SDS011;12457;50.832;4.346;2022-12-10T13:51:22;63.53;;;26.83;;
24337;SDS011;12457;50.832;4.346;2022-12-10T14:07:59;69.05;;;28.23;;
24337;SDS011;12457;50.832;4.346;2022-12-10T14:10:29;67.75;;;28.48;;
24337;SDS011;12457;50.832;4.346;2022-12-10T14:13:01;62.50;;;25.67;;
24337;SDS011;12457;50.832;4.346;2022-12-10T14:15:28;59.28;;;25.17;;
24337;SDS011;12457;50.832;4.346;2022-12-10T14:20:53;63.20;;;27.80;;
24337;SDS011;12457;50.832;4.346;2022-12-10T14:23:29;66.22;;;26.67;;
24337;SDS011;12457;50.832;4.346;2022-12-10T14:26:07;57.53;;;25.85;;
24337;SDS011;12457;50.832;4.346;2022-12-10T14:31:59;68.88;;;28.65;;
24337;SDS011;12457;50.832;4.346;2022-12-10T14:34:26;69.60;;;29.05;;
24337;SDS011;12457;50.832;4.346;2022-12-10T14:36:54;68.22;;;29.67;;
24337;SDS011;12457;50.832;4.346;2022-12-10T14:39:25;79.35;;;33.28;;
24337;SDS011;12457;50.832;4.346;2022-12-10T14:41:57;73.93;;;28.73;;
24337;SDS011;12457;50.832;4.346;2022-12-10T14:44:25;57.65;;;25.08;;
24337;SDS011;12457;50.832;4.346;2022-12-10T14:46:57;67.25;;;31.00;;
24337;SDS011;12457;50.832;4.346;2022-12-10T14:49:46;61.08;;;25.30;;
24337;SDS011;12457;50.832;4.346;2022-12-10T14:52:18;60.75;;;24.27;;
24337;SDS011;12457;50.832;4.346;2022-12-10T14:54:46;65.43;;;25.70;;
24337;SDS011;12457;50.832;4.346;2022-12-10T14:57:22;74.65;;;30.48;;
24337;SDS011;12457;50.832;4.346;2022-12-10T15:02:22;65.47;;;28.00;;
24337;SDS011;12457;50.832;4.346;2022-12-10T15:04:52;88.00;;;36.83;;
24337;SDS011;12457;50.832;4.346;2022-12-10T15:07:39;64.13;;;23.95;;
24337;SDS011;12457;50.832;4.346;2022-12-10T15:10:10;60.28;;;25.08;;
24337;SDS011;12457;50.832;4.346;2022-12-10T15:12:42;109.25;;;50.35;;
24337;SDS011;12457;50.832;4.346;2022-12-10T15:15:20;84.03;;;38.97;;
24337;SDS011;12457;50.832;4.346;2022-12-10T15:23:34;57.13;;;26.00;;
24337;SDS011;12457;50.832;4.346;2022-12-10T15:26:04;60.20;;;25.08;;
24337;SDS011;12457;50.832;4.346;2022-12-10T15:28:52;73.50;;;28.85;;
24337;SDS011;12457;50.832;4.346;2022-12-10T15:31:38;68.60;;;28.73;;
24337;SDS011;12457;50.832;4.346;2022-12-10T15:34:08;71.95;;;31.02;;
24337;SDS011;12457;50.832;4.346;2022-12-10T15:36:41;67.70;;;29.10;;
24337;SDS011;12457;50.832;4.346;2022-12-10T15:39:16;63.65;;;28.70;;
24337;SDS011;12457;50.832;4.346;2022-12-10T15:41:50;65.50;;;27.98;;
24337;SDS011;12457;50.832;4.346;2022-12-10T15:47:12;56.28;;;25.92;;
24337;SDS011;12457;50.832;4.346;2022-12-10T15:49:43;63.63;;;26.13;;
24337;SDS011;12457;50.832;4.346;2022-12-10T15:52:15;65.85;;;27.95;;
24337;SDS011;12457;50.832;4.346;2022-12-10T15:54:47;64.40;;;29.05;;
24337;SDS011;12457;50.832;4.346;2022-12-10T15:59:48;66.10;;;26.63;;
24337;SDS011;12457;50.832;4.346;2022-12-10T16:05:10;55.83;;;24.45;;
24337;SDS011;12457;50.832;4.346;2022-12-10T16:07:41;52.55;;;25.13;;
24337;SDS011;12457;50.832;4.346;2022-12-10T16:10:08;68.93;;;28.70;;
24337;SDS011;12457;50.832;4.346;2022-12-10T16:12:36;74.45;;;32.00;;
24337;SDS011;12457;50.832;4.346;2022-12-10T16:15:02;60.15;;;27.45;;
24337;SDS011;12457;50.832;4.346;2022-12-10T16:17:31;67.80;;;28.02;;
24337;SDS011;12457;50.832;4.346;2022-12-10T16:19:57;61.10;;;26.45;;
24337;SDS011;12457;50.832;4.346;2022-12-10T16:22:24;56.42;;;26.77;;
24337;SDS011;12457;50.832;4.346;2022-12-10T16:24:50;60.38;;;24.95;;
24337;SDS011;12457;50.832;4.346;2022-12-10T16:27:16;59.55;;;27.67;;
24337;SDS011;12457;50.832;4.346;2022-12-10T16:29:43;56.65;;;25.33;;
24337;SDS011;12457;50.832;4.346;2022-12-10T16:32:09;60.92;;;27.52;;
24337;SDS011;12457;50.832;4.346;2022-12-10T16:34:35;61.97;;;26.10;;
24337;SDS011;12457;50.832;4.346;2022-12-10T16:37:01;56.90;;;26.83;;
24337;SDS011;12457;50.832;4.346;2022-12-10T16:39:27;72.68;;;29.65;;
24337;SDS011;12457;50.832;4.346;2022-12-10T16:41:53;70.18;;;30.40;;
24337;SDS011;12457;50.832;4.346;2022-12-10T16:44:19;77.53;;;31.90;;
24337;SDS011;12457;50.832;4.346;2022-12-10T16:46:46;69.22;;;32.42;;
24337;SDS011;12457;50.832;4.346;2022-12-10T16:49:12;68.03;;;32.30;;
24337;SDS011;12457;50.832;4.346;2022-12-10T16:51:37;61.15;;;26.77;;
24337;SDS011;12457;50.832;4.346;2022-12-10T16:54:04;51.53;;;25.00;;
24337;SDS011;12457;50.832;4.346;2022-12-10T16:56:30;68.13;;;27.92;;
24337;SDS011;12457;50.832;4.346;2022-12-10T16:58:56;61.58;;;27.75;;
24337;SDS011;12457;50.832;4.346;2022-12-10T17:01:23;55.70;;;25.95;;
24337;SDS011;12457;50.832;4.346;2022-12-10T17:03:53;67.90;;;29.67;;
24337;SDS011;12457;50.832;4.346;2022-12-10T17:06:20;61.47;;;29.77;;
24337;SDS011;12457;50.832;4.346;2022-12-10T17:08:47;57.25;;;27.90;;